createdAt,value
2022-08-12T00:04:00.311Z,3.63
2022-08-12T00:09:26.146Z,5.00
2022-08-12T00:14:46.922Z,3.22
2022-08-12T00:20:07.411Z,2.90
2022-08-12T00:26:00.476Z,3.80
2022-08-12T00:31:09.430Z,4.60
2022-08-12T00:36:34.939Z,5.07
2022-08-12T00:41:57.486Z,3.22
2022-08-12T00:47:00.983Z,3.30
2022-08-12T00:52:11.927Z,5.07
2022-08-12T00:57:17.720Z,5.53
2022-08-12T01:02:34.546Z,2.97
2022-08-12T01:07:57.124Z,2.78
2022-08-12T01:13:07.308Z,3.17
2022-08-12T01:18:23.322Z,4.82
2022-08-12T01:23:40.777Z,3.33
2022-08-12T01:28:44.138Z,4.38
2022-08-12T01:34:03.316Z,3.70
2022-08-12T01:39:05.531Z,2.92
2022-08-12T01:44:09.273Z,3.03
2022-08-12T01:49:40.118Z,2.75
2022-08-12T01:54:45.695Z,3.33
2022-08-12T01:59:59.909Z,2.92
2022-08-12T02:05:35.807Z,2.88
2022-08-12T02:11:16.310Z,3.35
2022-08-12T02:16:23.837Z,3.42
2022-08-12T02:21:44.116Z,4.03
2022-08-12T02:26:48.696Z,6.68
2022-08-12T02:31:53.020Z,4.45
2022-08-12T02:37:00.256Z,3.25
2022-08-12T02:42:10.487Z,3.15
2022-08-12T02:47:55.539Z,2.72
2022-08-12T02:52:40.621Z,3.70
2022-08-12T02:57:44.512Z,4.97
2022-08-12T03:02:47.287Z,2.83
2022-08-12T03:07:59.701Z,5.35
2022-08-12T03:13:04.178Z,6.07
2022-08-12T03:18:27.075Z,3.67
2022-08-12T03:23:31.565Z,2.60
2022-08-12T03:28:50.482Z,3.30
2022-08-12T03:34:02.072Z,3.03
2022-08-12T03:39:18.267Z,4.43
2022-08-12T03:44:44.633Z,4.95
2022-08-12T03:50:05.508Z,4.63
2022-08-12T03:55:26.413Z,2.55
2022-08-12T04:00:30.373Z,3.03
2022-08-12T04:05:55.973Z,3.65
2022-08-12T04:11:14.134Z,4.22
2022-08-12T04:16:17.065Z,5.63
2022-08-12T04:21:18.749Z,4.82
2022-08-12T04:26:20.517Z,5.50
2022-08-12T04:31:43.300Z,6.07
2022-08-12T04:36:45.029Z,7.88
2022-08-12T04:41:52.456Z,7.15
2022-08-12T04:47:00.302Z,4.57
2022-08-12T04:52:03.319Z,4.35
2022-08-12T04:57:09.717Z,7.05
2022-08-12T05:02:16.952Z,5.03
2022-08-12T05:07:23.236Z,7.97
2022-08-12T05:12:28.303Z,6.18
2022-08-12T05:17:29.980Z,5.22
2022-08-12T05:22:32.478Z,5.40
2022-08-12T05:27:58.741Z,10.00
2022-08-12T05:33:05.952Z,5.65
2022-08-12T05:38:30.882Z,4.53
2022-08-12T05:43:35.466Z,4.97
2022-08-12T05:48:37.189Z,4.63
2022-08-12T05:53:40.248Z,5.78
2022-08-12T05:58:42.039Z,6.18
2022-08-12T06:03:44.194Z,5.90
2022-08-12T06:08:48.617Z,6.45
2022-08-12T06:13:54.521Z,4.18
2022-08-12T06:18:57.497Z,8.93
2022-08-12T06:23:59.166Z,5.75
2022-08-12T06:29:01.038Z,6.47
2022-08-12T06:35:25.657Z,4.65
2022-08-12T06:39:24.758Z,5.93
2022-08-12T06:44:26.470Z,7.68
2022-08-12T06:49:33.441Z,4.03
2022-08-12T06:54:35.401Z,8.70
2022-08-12T06:59:40.865Z,2.50
2022-08-12T07:04:43.338Z,3.10
2022-08-12T07:10:05.774Z,4.05
2022-08-12T07:15:07.314Z,3.60
2022-08-12T07:20:29.905Z,4.70
2022-08-12T07:25:41.242Z,4.03
2022-08-12T07:30:44.993Z,4.32
2022-08-12T07:35:48.004Z,3.03
2022-08-12T07:40:54.802Z,5.97
2022-08-12T07:45:57.637Z,3.53
2022-08-12T07:50:59.319Z,4.15
2022-08-12T07:56:02.295Z,6.30
2022-08-12T08:01:05.759Z,7.00
2022-08-12T08:06:18.847Z,4.03
2022-08-12T08:11:41.591Z,4.28
2022-08-12T08:16:43.457Z,2.70
2022-08-12T08:21:46.029Z,2.55
2022-08-12T08:26:50.711Z,4.03
2022-08-12T08:32:00.174Z,2.13
2022-08-12T08:37:03.942Z,2.70
2022-08-12T08:42:27.729Z,2.72
2022-08-12T08:47:29.825Z,4.10
2022-08-12T08:52:40.370Z,2.85
2022-08-12T08:57:51.214Z,1.40
2022-08-12T09:02:59.058Z,3.28
2022-08-12T09:08:13.054Z,2.75
2022-08-12T09:14:10.735Z,2.50
2022-08-12T09:18:52.582Z,3.28
2022-08-12T09:24:07.515Z,2.80
2022-08-12T09:29:11.975Z,2.45
2022-08-12T09:34:26.426Z,2.72
2022-08-12T09:40:05.412Z,2.58
2022-08-12T09:45:19.500Z,1.70
2022-08-12T09:50:26.229Z,2.47
2022-08-12T09:55:57.299Z,2.67
2022-08-12T10:00:52.884Z,2.33
2022-08-12T10:06:26.692Z,1.63
2022-08-12T10:12:10.890Z,4.75
2022-08-12T10:16:58.784Z,1.98
2022-08-12T10:22:01.555Z,1.55
2022-08-12T10:27:21.581Z,3.78
2022-08-12T10:32:44.747Z,2.72
2022-08-12T10:38:36.524Z,3.95
2022-08-12T10:43:27.093Z,1.88
2022-08-12T10:48:33.347Z,5.25
2022-08-12T10:53:44.018Z,2.15
2022-08-12T10:58:48.844Z,2.00
2022-08-12T11:04:26.006Z,3.85
2022-08-12T11:09:14.585Z,2.15
2022-08-12T11:14:50.033Z,2.83
2022-08-12T11:19:49.784Z,3.03
2022-08-12T11:24:53.690Z,1.30
2022-08-12T11:30:05.639Z,4.30
2022-08-12T11:35:11.538Z,2.00
2022-08-12T11:40:13.664Z,2.50
2022-08-12T11:45:16.938Z,1.45
2022-08-12T11:50:20.492Z,2.00
2022-08-12T11:55:23.075Z,2.45
2022-08-12T12:05:47.315Z,1.92
2022-08-12T12:10:50.504Z,2.00
2022-08-12T12:15:53.148Z,1.33
2022-08-12T12:21:04.035Z,2.45
2022-08-12T12:26:08.345Z,2.38
2022-08-12T12:31:14.972Z,2.17
2022-08-12T12:36:33.390Z,1.73
2022-08-12T12:42:41.573Z,1.33
2022-08-12T12:46:57.348Z,3.85
2022-08-12T12:52:18.427Z,1.70
2022-08-12T12:57:21.609Z,3.03
2022-08-12T13:02:40.238Z,3.70
2022-08-12T13:07:48.964Z,2.22
2022-08-12T13:12:56.827Z,1.50
2022-08-12T13:18:05.094Z,2.25
2022-08-12T13:23:35.923Z,5.72
2022-08-12T13:28:31.583Z,1.77
2022-08-12T13:34:33.192Z,2.45
2022-08-12T13:38:57.457Z,4.00
2022-08-12T13:44:00.040Z,1.92
2022-08-12T13:49:04.817Z,2.10
2022-08-12T13:54:11.603Z,7.00
2022-08-12T13:59:16.460Z,1.63
2022-08-12T14:04:30.305Z,1.63
2022-08-12T14:09:52.495Z,1.63
2022-08-12T14:14:57.354Z,3.67
2022-08-12T14:20:14.336Z,2.45
2022-08-12T14:25:16.888Z,4.50
2022-08-12T14:30:24.150Z,3.47
2022-08-12T14:35:41.461Z,1.90
2022-08-12T14:40:53.156Z,1.50
2022-08-12T14:45:56.382Z,4.15
2022-08-12T14:52:10.825Z,2.88
2022-08-12T15:01:45.201Z,1.85
2022-08-12T15:06:52.658Z,3.45
2022-08-12T15:12:03.830Z,2.67
2022-08-12T15:17:07.116Z,1.60
2022-08-12T15:22:39.648Z,1.83
2022-08-12T15:27:31.678Z,1.40
2022-08-12T15:32:33.659Z,3.15
2022-08-12T15:38:08.274Z,1.33
2022-08-12T15:42:59.699Z,1.75
2022-08-12T15:48:16.846Z,1.60
2022-08-12T15:53:42.505Z,3.92
2022-08-12T15:58:47.598Z,2.10
2022-08-12T16:04:00.076Z,2.50
2022-08-12T16:09:02.655Z,2.15
2022-08-12T16:14:04.369Z,1.40
2022-08-12T16:19:18.900Z,3.95
2022-08-12T16:24:29.966Z,2.55
2022-08-12T16:29:52.460Z,2.58
2022-08-12T16:34:57.674Z,1.52
2022-08-12T16:40:04.929Z,3.22
2022-08-12T16:45:10.162Z,3.47
2022-08-12T16:50:15.789Z,1.30
2022-08-12T16:55:18.763Z,2.03
2022-08-12T17:00:20.638Z,2.00
2022-08-12T17:05:31.369Z,1.63
2022-08-12T17:10:36.746Z,1.30
2022-08-12T17:15:57.307Z,2.42
2022-08-12T17:21:07.964Z,1.75
2022-08-12T17:26:11.025Z,1.92
2022-08-12T17:31:15.918Z,3.50
2022-08-12T17:36:37.579Z,1.40
2022-08-12T17:41:56.448Z,3.60
2022-08-12T17:46:59.294Z,2.45
2022-08-12T17:52:03.216Z,3.10
2022-08-12T17:57:12.176Z,2.92
2022-08-12T18:02:25.574Z,3.58
2022-08-12T18:07:32.266Z,1.92
2022-08-12T18:12:40.171Z,3.75
2022-08-12T18:17:47.262Z,2.75
2022-08-12T18:22:55.833Z,2.83
2022-08-12T18:28:15.706Z,3.30
2022-08-12T18:33:24.637Z,3.05
2022-08-12T18:38:27.951Z,2.78
2022-08-12T18:43:30.502Z,2.20
2022-08-12T18:48:41.769Z,4.50
2022-08-12T18:54:06.437Z,3.47
2022-08-12T18:59:10.096Z,2.90
2022-08-12T19:04:13.505Z,3.78
2022-08-12T19:09:15.659Z,2.42
2022-08-12T19:14:28.177Z,7.80
2022-08-12T19:19:38.869Z,2.45
2022-08-12T19:25:02.643Z,4.88
2022-08-12T19:30:09.055Z,4.63
2022-08-12T19:40:35.048Z,3.58
2022-08-12T19:45:43.788Z,3.10
2022-08-12T19:50:53.482Z,3.45
2022-08-12T19:55:57.111Z,4.57
2022-08-12T20:00:59.246Z,4.53
2022-08-12T20:06:05.633Z,4.45
2022-08-12T20:12:12.293Z,3.47
2022-08-12T20:17:02.010Z,4.15
2022-08-12T20:21:58.340Z,3.35
2022-08-12T20:27:00.439Z,4.78
2022-08-12T20:32:05.949Z,3.42
2022-08-12T20:37:13.314Z,5.28
2022-08-12T20:42:15.042Z,4.95
2022-08-12T20:47:19.924Z,4.10
2022-08-12T20:52:25.421Z,4.00
2022-08-12T20:57:37.411Z,10.02
2022-08-12T21:02:43.648Z,11.73
2022-08-12T21:07:47.821Z,5.18
2022-08-12T21:12:54.294Z,5.40
2022-08-12T21:18:11.872Z,12.70
2022-08-12T21:23:25.632Z,14.50
2022-08-12T21:28:33.508Z,13.10
2022-08-12T21:33:58.661Z,13.32
2022-08-12T21:39:20.171Z,8.98
2022-08-12T21:45:47.639Z,9.25
2022-08-12T21:49:55.558Z,6.88
2022-08-12T21:55:08.303Z,6.55
2022-08-12T22:00:19.865Z,4.97
2022-08-12T22:05:40.143Z,4.78
2022-08-12T22:10:46.448Z,3.65
2022-08-12T22:15:53.367Z,3.95
2022-08-12T22:20:56.914Z,3.45
2022-08-12T22:25:59.676Z,3.40
2022-08-12T22:31:11.252Z,3.80
2022-08-12T22:36:21.912Z,3.78
2022-08-12T22:41:46.964Z,3.50
2022-08-12T22:46:58.468Z,5.85
2022-08-12T22:52:06.598Z,5.25
2022-08-12T22:57:12.342Z,4.55
2022-08-12T23:02:14.346Z,3.78
2022-08-12T23:07:16.065Z,4.10
2022-08-12T23:12:41.119Z,5.00
2022-08-12T23:17:48.377Z,6.20
2022-08-12T23:23:08.697Z,6.28
2022-08-12T23:28:31.138Z,4.55
2022-08-12T23:34:00.819Z,3.97
2022-08-12T23:38:58.644Z,6.70
2022-08-12T23:44:05.627Z,5.10
2022-08-12T23:49:56.207Z,4.50
2022-08-12T23:54:38.740Z,5.30
2022-08-12T23:59:55.573Z,5.78
